createdAt,value
2022-10-28T00:01:20.755Z,19.00
2022-10-28T00:03:51.752Z,13.75
2022-10-28T00:06:45.702Z,18.25
2022-10-28T00:09:13.380Z,16.00
2022-10-28T00:11:41.149Z,19.00
2022-10-28T00:14:10.601Z,17.75
2022-10-28T00:16:38.997Z,21.75
2022-10-28T00:19:10.364Z,14.50
2022-10-28T00:21:40.178Z,17.00
2022-10-28T00:24:09.912Z,14.75
2022-10-28T00:26:39.545Z,13.50
2022-10-28T00:29:12.690Z,16.00
2022-10-28T00:31:40.452Z,14.50
2022-10-28T00:34:14.331Z,14.25
2022-10-28T00:36:44.159Z,10.75
2022-10-28T00:39:23.226Z,12.75
2022-10-28T00:42:03.891Z,7.00
2022-10-28T00:45:00.906Z,12.50
2022-10-28T00:47:52.959Z,6.50
2022-10-28T00:50:21.378Z,14.75
2022-10-28T00:52:54.196Z,14.75
2022-10-28T00:55:23.205Z,10.25
2022-10-28T00:57:51.876Z,14.75
2022-10-28T01:00:20.044Z,15.00
2022-10-28T01:02:49.886Z,11.75
2022-10-28T01:05:22.996Z,11.50
2022-10-28T01:07:57.789Z,14.00
2022-10-28T01:10:36.570Z,14.50
2022-10-28T01:13:33.577Z,10.50
2022-10-28T01:16:07.380Z,11.50
2022-10-28T01:18:40.989Z,15.00
2022-10-28T01:21:40.587Z,14.00
2022-10-28T01:24:36.265Z,9.00
2022-10-28T01:27:36.377Z,10.50
2022-10-28T01:30:19.979Z,13.75
2022-10-28T01:33:10.059Z,11.00
2022-10-28T01:35:53.619Z,15.00
2022-10-28T01:38:57.230Z,11.00
2022-10-28T01:41:38.958Z,13.50
2022-10-28T01:44:28.746Z,8.50
2022-10-28T01:47:04.854Z,10.50
2022-10-28T01:49:48.109Z,10.50
2022-10-28T01:52:21.425Z,10.00
2022-10-28T01:54:56.623Z,10.00
2022-10-28T01:57:27.850Z,6.50
2022-10-28T01:59:56.461Z,6.50
2022-10-28T02:02:24.214Z,10.00
2022-10-28T02:04:51.860Z,3.50
2022-10-28T02:07:19.340Z,6.25
2022-10-28T02:10:10.574Z,9.25
2022-10-28T02:12:39.367Z,15.75
2022-10-28T02:15:42.892Z,11.25
2022-10-28T02:18:10.421Z,10.50
2022-10-28T02:21:01.773Z,9.50
2022-10-28T02:23:42.551Z,10.25
2022-10-28T02:26:17.453Z,12.00
2022-10-28T02:28:59.383Z,8.50
2022-10-28T02:31:35.903Z,10.50
2022-10-28T02:34:26.723Z,8.25
2022-10-28T02:36:57.391Z,7.00
2022-10-28T02:39:38.208Z,10.00
2022-10-28T02:42:09.654Z,7.50
2022-10-28T02:44:44.096Z,9.75
2022-10-28T02:47:16.023Z,7.75
2022-10-28T02:49:48.255Z,7.50
2022-10-28T02:52:19.730Z,10.00
2022-10-28T02:55:05.663Z,8.00
2022-10-28T02:57:40.507Z,8.75
2022-10-28T03:00:11.305Z,8.00
2022-10-28T03:02:38.753Z,8.00
2022-10-28T03:05:07.356Z,8.50
2022-10-28T03:07:34.893Z,8.00
2022-10-28T03:10:02.062Z,8.25
2022-10-28T03:12:29.576Z,9.00
2022-10-28T03:14:56.887Z,7.50
2022-10-28T03:17:24.297Z,5.75
2022-10-28T03:19:51.743Z,5.50
2022-10-28T03:22:19.063Z,6.00
2022-10-28T03:24:46.534Z,7.75
2022-10-28T03:27:14.004Z,6.00
2022-10-28T03:29:44.936Z,9.00
2022-10-28T03:32:14.151Z,7.50
2022-10-28T03:34:41.812Z,9.00
2022-10-28T03:37:09.546Z,7.75
2022-10-28T03:39:37.230Z,7.50
2022-10-28T03:42:04.903Z,7.50
2022-10-28T03:44:32.502Z,6.75
2022-10-28T03:47:00.137Z,8.00
2022-10-28T03:49:27.763Z,7.50
2022-10-28T03:51:55.234Z,6.50
2022-10-28T03:54:22.577Z,6.25
2022-10-28T03:56:49.927Z,8.00
2022-10-28T03:59:20.115Z,6.75
2022-10-28T04:01:48.041Z,2.75
2022-10-28T04:04:15.380Z,8.50
2022-10-28T04:06:42.827Z,4.50
2022-10-28T04:09:10.095Z,6.00
2022-10-28T04:11:38.239Z,7.50
2022-10-28T04:14:05.715Z,10.00
2022-10-28T04:16:33.216Z,6.25
2022-10-28T04:19:00.813Z,8.00
2022-10-28T04:21:28.460Z,7.75
2022-10-28T04:23:55.856Z,9.00
2022-10-28T04:26:23.582Z,6.00
2022-10-28T04:28:51.218Z,8.25
2022-10-28T04:31:18.952Z,9.00
2022-10-28T04:33:46.530Z,6.25
2022-10-28T04:36:13.968Z,10.50
2022-10-28T04:38:41.478Z,9.50
2022-10-28T04:41:13.809Z,7.00
2022-10-28T04:43:41.212Z,5.75
2022-10-28T04:46:08.540Z,9.75
2022-10-28T04:48:36.616Z,6.00
2022-10-28T04:51:04.368Z,4.25
2022-10-28T04:53:31.903Z,7.00
2022-10-28T04:56:00.122Z,8.25
2022-10-28T04:58:28.114Z,5.75
2022-10-28T05:01:00.632Z,4.50
2022-10-28T05:03:29.159Z,8.00
2022-10-28T05:05:56.819Z,8.25
2022-10-28T05:08:24.419Z,7.50
2022-10-28T05:10:51.837Z,7.00
2022-10-28T05:13:19.755Z,7.25
2022-10-28T05:15:50.868Z,4.50
2022-10-28T05:18:18.674Z,7.75
2022-10-28T05:20:46.271Z,8.75
2022-10-28T05:23:13.951Z,7.00
2022-10-28T05:25:43.341Z,6.25
2022-10-28T05:28:12.026Z,4.75
2022-10-28T05:30:39.505Z,5.50
2022-10-28T05:33:07.277Z,6.50
2022-10-28T05:35:34.903Z,7.00
2022-10-28T05:38:02.834Z,6.50
2022-10-28T05:40:32.944Z,5.50
2022-10-28T05:43:02.058Z,6.50
2022-10-28T05:47:57.441Z,7.00
2022-10-28T05:50:25.267Z,6.00
2022-10-28T05:52:55.019Z,6.75
2022-10-28T05:55:25.042Z,5.50
2022-10-28T05:57:53.592Z,4.00
2022-10-28T06:00:24.382Z,3.50
2022-10-28T06:02:52.166Z,4.00
2022-10-28T06:05:20.944Z,6.50
2022-10-28T06:07:48.781Z,4.75
2022-10-28T06:10:16.982Z,4.25
2022-10-28T06:12:43.023Z,5.00
2022-10-28T06:15:10.730Z,6.75
2022-10-28T06:17:38.558Z,4.50
2022-10-28T06:20:06.751Z,5.75
2022-10-28T06:22:34.450Z,5.50
2022-10-28T06:25:02.074Z,4.25
2022-10-28T06:27:29.729Z,3.00
2022-10-28T06:29:57.384Z,5.00
2022-10-28T06:32:25.068Z,6.00
2022-10-28T06:34:52.762Z,6.75
2022-10-28T06:37:20.410Z,4.00
2022-10-28T06:39:51.572Z,4.50
2022-10-28T06:42:21.456Z,4.00
2022-10-28T06:44:49.723Z,3.25
2022-10-28T06:47:19.091Z,4.00
2022-10-28T06:49:46.495Z,5.00
2022-10-28T06:52:14.203Z,3.00
2022-10-28T06:54:41.997Z,4.75
2022-10-28T06:57:10.685Z,2.75
2022-10-28T06:59:38.338Z,3.00
2022-10-28T07:02:06.288Z,3.50
2022-10-28T07:04:34.095Z,2.00
2022-10-28T07:07:01.736Z,3.00
2022-10-28T07:09:29.400Z,4.25
2022-10-28T07:12:00.807Z,3.00
2022-10-28T07:14:32.393Z,3.75
2022-10-28T07:16:59.896Z,4.25
2022-10-28T07:19:27.716Z,5.00
2022-10-28T07:21:55.315Z,3.25
2022-10-28T07:24:23.145Z,3.00
2022-10-28T07:26:53.054Z,2.00
2022-10-28T07:29:31.742Z,3.75
2022-10-28T07:31:59.523Z,2.00
2022-10-28T07:34:27.653Z,3.50
2022-10-28T07:36:56.127Z,4.00
2022-10-28T07:39:23.866Z,4.25
2022-10-28T07:41:51.476Z,5.00
2022-10-28T07:44:18.904Z,4.50
2022-10-28T07:46:46.618Z,3.25
2022-10-28T07:49:14.157Z,1.00
2022-10-28T07:51:41.795Z,3.00
2022-10-28T07:54:09.252Z,4.50
2022-10-28T07:56:37.215Z,3.25
2022-10-28T07:59:04.767Z,3.00
2022-10-28T08:01:32.575Z,4.25
2022-10-28T08:04:00.337Z,3.25
2022-10-28T08:06:28.010Z,4.00
2022-10-28T08:08:57.010Z,2.25
2022-10-28T08:11:25.129Z,4.50
2022-10-28T08:13:53.533Z,2.25
2022-10-28T08:16:21.205Z,3.75
2022-10-28T08:18:49.165Z,4.50
2022-10-28T08:21:17.488Z,5.50
2022-10-28T08:23:48.370Z,4.25
2022-10-28T08:26:17.273Z,3.25
2022-10-28T08:28:45.073Z,2.50
2022-10-28T08:31:13.438Z,3.25
2022-10-28T08:33:47.266Z,1.00
2022-10-28T08:36:17.157Z,2.00
2022-10-28T08:38:46.167Z,1.75
2022-10-28T08:41:25.581Z,2.00
2022-10-28T08:44:11.808Z,2.50
2022-10-28T08:47:02.676Z,2.50
2022-10-28T08:49:34.923Z,2.00
2022-10-28T08:52:20.999Z,3.25
2022-10-28T08:54:56.052Z,1.75
2022-10-28T08:57:44.846Z,3.00
2022-10-28T09:00:23.356Z,1.75
2022-10-28T09:02:58.200Z,2.00
2022-10-28T09:05:27.181Z,2.00
2022-10-28T09:07:58.022Z,0.75
2022-10-28T09:11:07.512Z,1.50
2022-10-28T09:13:49.884Z,1.50
2022-10-28T09:16:35.584Z,0.75
2022-10-28T09:19:42.353Z,2.00
2022-10-28T09:22:38.458Z,2.00
2022-10-28T09:25:32.170Z,1.00
2022-10-28T09:28:30.018Z,1.00
2022-10-28T09:31:26.193Z,2.00
2022-10-28T09:34:06.446Z,2.00
2022-10-28T09:36:39.780Z,3.50
2022-10-28T09:39:14.255Z,1.00
2022-10-28T09:41:44.293Z,1.50
2022-10-28T09:44:21.527Z,2.00
2022-10-28T09:46:54.132Z,2.00
2022-10-28T09:49:28.251Z,3.50
2022-10-28T09:52:07.804Z,1.00
2022-10-28T09:54:38.722Z,3.50
2022-10-28T09:57:07.029Z,2.25
2022-10-28T09:59:35.397Z,2.50
2022-10-28T10:02:04.616Z,3.25
2022-10-28T10:04:32.422Z,3.00
2022-10-28T10:07:09.852Z,2.25
2022-10-28T10:09:39.942Z,2.75
2022-10-28T10:12:10.768Z,1.00
2022-10-28T10:14:48.240Z,2.25
2022-10-28T10:17:17.381Z,2.75
2022-10-28T10:20:06.348Z,2.00
2022-10-28T10:22:38.556Z,4.00
2022-10-28T10:25:18.792Z,2.25
2022-10-28T10:28:15.165Z,2.50
2022-10-28T10:30:51.343Z,1.75
2022-10-28T10:33:23.349Z,2.00
2022-10-28T10:36:01.127Z,2.50
2022-10-28T10:38:30.561Z,2.00
2022-10-28T10:40:58.447Z,1.50
2022-10-28T10:43:34.650Z,3.25
2022-10-28T10:46:06.888Z,2.75
2022-10-28T10:48:38.767Z,2.25
2022-10-28T10:51:22.487Z,2.25
2022-10-28T10:53:55.068Z,2.75
2022-10-28T10:56:28.803Z,3.00
2022-10-28T10:59:02.343Z,3.00
2022-10-28T11:01:37.093Z,3.50
2022-10-28T11:04:15.537Z,3.25
2022-10-28T11:06:45.015Z,3.00
2022-10-28T11:09:33.828Z,3.00
2022-10-28T11:12:02.124Z,4.75
2022-10-28T11:14:32.643Z,3.00
2022-10-28T11:17:02.983Z,3.00
2022-10-28T11:19:36.244Z,3.25
2022-10-28T11:22:41.431Z,0.50
2022-10-28T11:25:30.448Z,5.00
2022-10-28T11:28:28.952Z,2.25
2022-10-28T11:31:16.688Z,2.00
2022-10-28T11:34:29.638Z,1.75
2022-10-28T11:37:34.971Z,2.00
2022-10-28T11:40:33.456Z,2.00
2022-10-28T11:43:23.302Z,2.00
2022-10-28T11:46:09.720Z,2.25
2022-10-28T11:49:15.302Z,2.75
2022-10-28T11:51:48.058Z,2.50
2022-10-28T11:54:53.247Z,4.00
2022-10-28T11:57:41.190Z,7.50
2022-10-28T12:00:41.525Z,6.00
2022-10-28T12:03:27.044Z,6.75
2022-10-28T12:06:17.369Z,4.00
2022-10-28T12:09:12.066Z,5.00
2022-10-28T12:11:57.827Z,6.25
2022-10-28T12:14:47.375Z,5.75
2022-10-28T12:17:22.872Z,5.00
2022-10-28T12:20:26.241Z,5.75
2022-10-28T12:22:57.656Z,6.00
2022-10-28T12:25:29.367Z,5.00
2022-10-28T12:28:02.533Z,4.50
2022-10-28T12:30:32.970Z,5.25
2022-10-28T12:33:30.026Z,5.50
2022-10-28T12:36:10.176Z,3.00
2022-10-28T12:38:57.337Z,6.75
2022-10-28T12:41:28.465Z,4.00
2022-10-28T12:44:19.561Z,3.00
2022-10-28T12:47:23.851Z,6.50
2022-10-28T12:50:23.134Z,5.00
2022-10-28T12:53:02.586Z,4.75
2022-10-28T12:55:39.098Z,3.50
2022-10-28T12:58:16.377Z,4.75
2022-10-28T13:00:49.620Z,4.00
2022-10-28T13:03:18.465Z,5.25
2022-10-28T13:06:16.611Z,4.75
2022-10-28T13:09:20.217Z,4.00
2022-10-28T13:12:16.878Z,4.25
2022-10-28T13:15:39.895Z,6.25
2022-10-28T13:18:45.033Z,5.25
2022-10-28T13:21:39.090Z,6.00
2022-10-28T13:24:33.058Z,6.75
2022-10-28T13:27:04.860Z,5.75
2022-10-28T13:29:35.256Z,6.00
2022-10-28T13:32:03.173Z,1.00
2022-10-28T13:34:38.752Z,5.25
2022-10-28T13:37:17.549Z,4.50
2022-10-28T13:39:47.519Z,4.50
2022-10-28T13:42:18.356Z,6.75
2022-10-28T13:44:57.290Z,4.00
2022-10-28T13:47:26.879Z,3.50
2022-10-28T13:50:06.651Z,6.00
2022-10-28T13:52:36.800Z,6.00
2022-10-28T13:55:23.118Z,5.75
2022-10-28T13:57:58.440Z,7.00
2022-10-28T14:03:17.662Z,3.00
2022-10-28T14:05:45.427Z,5.00
2022-10-28T14:08:19.376Z,6.00
2022-10-28T14:11:14.695Z,5.50
2022-10-28T14:13:55.103Z,2.50
2022-10-28T14:16:41.257Z,7.75
2022-10-28T14:19:11.975Z,3.50
2022-10-28T14:21:48.171Z,5.75
2022-10-28T14:24:42.766Z,4.75
2022-10-28T14:27:12.044Z,4.50
2022-10-28T14:30:11.963Z,7.50
2022-10-28T14:33:04.336Z,4.50
2022-10-28T14:35:41.018Z,5.00
2022-10-28T14:38:51.923Z,4.25
2022-10-28T14:41:52.161Z,4.75
2022-10-28T14:44:52.105Z,4.50
2022-10-28T14:47:53.892Z,2.00
2022-10-28T14:50:40.719Z,6.50
2022-10-28T14:53:17.558Z,3.75
2022-10-28T14:55:56.217Z,7.00
2022-10-28T14:58:27.504Z,5.75
2022-10-28T15:01:03.849Z,7.00
2022-10-28T15:03:32.360Z,6.50
2022-10-28T15:06:19.591Z,6.25
2022-10-28T15:08:47.261Z,6.00
2022-10-28T15:11:17.365Z,6.00
2022-10-28T15:13:44.683Z,6.25
2022-10-28T15:16:25.657Z,6.00
2022-10-28T15:18:55.070Z,4.50
2022-10-28T15:21:23.112Z,3.75
2022-10-28T15:24:05.088Z,5.25
2022-10-28T15:26:32.990Z,5.50
2022-10-28T15:29:03.928Z,6.25
2022-10-28T15:31:31.520Z,7.00
2022-10-28T15:33:58.687Z,6.25
2022-10-28T15:36:26.852Z,6.75
2022-10-28T15:39:20.519Z,5.75
2022-10-28T15:41:54.175Z,7.50
2022-10-28T15:44:36.213Z,8.25
2022-10-28T15:47:20.909Z,5.75
2022-10-28T15:50:03.248Z,4.00
2022-10-28T15:52:36.569Z,6.00
2022-10-28T15:55:19.612Z,2.25
2022-10-28T15:57:52.569Z,7.80
2022-10-28T16:00:35.064Z,8.80
2022-10-28T16:03:08.512Z,5.60
2022-10-28T16:05:36.175Z,5.00
2022-10-28T16:08:23.831Z,4.20
2022-10-28T16:10:58.066Z,7.00
2022-10-28T16:13:47.306Z,9.00
2022-10-28T16:16:23.089Z,9.20
2022-10-28T16:18:56.113Z,6.25
2022-10-28T16:21:26.665Z,8.00
2022-10-28T16:24:01.837Z,9.00
2022-10-28T16:26:30.745Z,8.20
2022-10-28T16:28:58.126Z,9.50
2022-10-28T16:31:28.742Z,10.20
2022-10-28T16:33:57.564Z,5.80
2022-10-28T16:36:26.424Z,13.00
2022-10-28T16:38:53.809Z,9.40
2022-10-28T16:41:21.265Z,11.40
2022-10-28T16:43:48.799Z,10.20
2022-10-28T16:46:16.306Z,11.60
2022-10-28T16:48:43.779Z,14.80
2022-10-28T16:51:18.330Z,8.60
2022-10-28T16:53:51.106Z,11.80
2022-10-28T16:56:18.869Z,9.80
2022-10-28T16:58:47.006Z,9.75
2022-10-28T17:01:20.982Z,13.25
2022-10-28T17:03:48.717Z,10.50
2022-10-28T17:06:16.106Z,10.75
2022-10-28T17:09:01.852Z,10.75
2022-10-28T17:13:58.438Z,13.80
2022-10-28T17:16:25.888Z,11.50
2022-10-28T17:18:53.250Z,11.25
2022-10-28T17:21:20.827Z,12.00
2022-10-28T17:23:48.121Z,8.25
2022-10-28T17:26:15.597Z,12.00
2022-10-28T17:28:42.972Z,14.25
2022-10-28T17:31:11.104Z,12.00
2022-10-28T17:33:38.452Z,11.40
2022-10-28T17:36:08.951Z,14.00
2022-10-28T17:38:36.312Z,13.40
2022-10-28T17:41:03.702Z,11.75
2022-10-28T17:43:31.045Z,14.25
2022-10-28T17:46:06.426Z,12.00
2022-10-28T17:48:34.712Z,14.25
2022-10-28T17:51:02.109Z,12.00
2022-10-28T17:53:29.792Z,10.75
2022-10-28T17:56:02.138Z,13.00
2022-10-28T17:58:30.297Z,7.25
2022-10-28T18:01:06.279Z,11.75
2022-10-28T18:03:39.260Z,14.75
2022-10-28T18:06:11.555Z,12.00
2022-10-28T18:08:43.664Z,16.00
2022-10-28T18:11:13.713Z,17.00
2022-10-28T18:13:45.427Z,16.00
2022-10-28T18:16:15.764Z,11.50
2022-10-28T18:18:43.404Z,13.25
2022-10-28T18:21:11.840Z,16.50
2022-10-28T18:23:41.329Z,11.25
2022-10-28T18:26:13.058Z,14.00
2022-10-28T18:28:42.327Z,14.50
2022-10-28T18:31:16.992Z,13.50
2022-10-28T18:33:45.240Z,18.25
2022-10-28T18:36:15.803Z,12.75
2022-10-28T18:38:43.545Z,17.25
2022-10-28T18:41:25.964Z,17.25
2022-10-28T18:44:01.108Z,11.75
2022-10-28T18:46:30.262Z,17.25
2022-10-28T18:48:57.774Z,13.75
2022-10-28T18:51:25.878Z,16.75
2022-10-28T18:53:53.530Z,14.50
2022-10-28T18:56:24.403Z,13.25
2022-10-28T18:58:52.687Z,21.00
2022-10-28T19:01:23.626Z,12.75
2022-10-28T19:03:56.002Z,14.75
2022-10-28T19:06:24.795Z,16.75
2022-10-28T19:08:54.089Z,16.50
2022-10-28T19:11:22.992Z,16.67
2022-10-28T19:13:50.294Z,17.50
2022-10-28T19:16:17.836Z,16.25
2022-10-28T19:18:45.111Z,15.25
2022-10-28T19:21:16.864Z,16.25
2022-10-28T19:23:44.287Z,15.75
2022-10-28T19:26:12.439Z,16.75
2022-10-28T19:28:40.746Z,22.00
2022-10-28T19:31:11.192Z,18.25
2022-10-28T19:33:39.437Z,19.00
2022-10-28T19:36:29.086Z,17.25
2022-10-28T19:38:58.121Z,15.25
2022-10-28T19:41:28.182Z,20.75
2022-10-28T19:43:58.494Z,18.50
2022-10-28T19:46:29.015Z,16.75
2022-10-28T19:49:01.480Z,12.00
2022-10-28T19:51:31.192Z,18.00
2022-10-28T19:54:01.024Z,16.25
2022-10-28T19:56:30.211Z,22.25
2022-10-28T19:59:00.041Z,18.25
2022-10-28T20:01:30.066Z,11.75
2022-10-28T20:03:58.056Z,11.75
2022-10-28T20:06:27.661Z,20.25
2022-10-28T20:08:55.120Z,21.00
2022-10-28T20:11:28.248Z,17.50
2022-10-28T20:14:06.729Z,18.00
2022-10-28T20:16:34.342Z,19.00
2022-10-28T20:19:02.043Z,14.75
2022-10-28T20:21:31.596Z,16.75
2022-10-28T20:23:59.100Z,20.50
2022-10-28T20:26:29.134Z,16.00
2022-10-28T20:28:57.655Z,16.00
2022-10-28T20:31:27.272Z,18.00
2022-10-28T20:34:00.120Z,21.25
2022-10-28T20:36:41.365Z,18.00
2022-10-28T20:39:12.476Z,18.50
2022-10-28T20:41:41.762Z,22.50
2022-10-28T20:44:09.523Z,15.50
2022-10-28T20:46:38.277Z,17.75
2022-10-28T20:49:06.683Z,19.75
2022-10-28T20:51:34.403Z,20.75
2022-10-28T20:54:02.367Z,23.00
2022-10-28T20:56:32.212Z,23.25
2022-10-28T20:59:00.375Z,20.50
2022-10-28T21:01:37.638Z,18.25
2022-10-28T21:04:10.525Z,16.00
2022-10-28T21:06:38.810Z,23.50
2022-10-28T21:09:07.482Z,16.25
2022-10-28T21:11:35.142Z,20.00
2022-10-28T21:14:02.779Z,21.25
2022-10-28T21:16:30.960Z,14.75
2022-10-28T21:18:59.699Z,15.50
2022-10-28T21:21:28.192Z,18.50
2022-10-28T21:23:55.704Z,18.00
2022-10-28T21:26:23.658Z,17.25
2022-10-28T21:28:52.942Z,19.00
2022-10-28T21:31:21.284Z,18.00
2022-10-28T21:36:19.595Z,20.75
2022-10-28T21:38:47.425Z,16.75
2022-10-28T21:41:20.459Z,16.25
2022-10-28T21:43:50.132Z,18.25
2022-10-28T21:46:22.319Z,13.75
2022-10-28T21:48:49.922Z,15.75
2022-10-28T21:51:18.030Z,13.50
2022-10-28T21:53:46.306Z,18.50
2022-10-28T21:56:18.059Z,14.50
2022-10-28T21:58:48.246Z,18.00
2022-10-28T22:01:19.377Z,14.75
2022-10-28T22:03:47.227Z,16.75
2022-10-28T22:06:15.203Z,14.00
2022-10-28T22:08:43.263Z,16.25
2022-10-28T22:11:15.911Z,18.00
2022-10-28T22:13:43.962Z,15.50
2022-10-28T22:16:15.038Z,12.50
2022-10-28T22:18:43.287Z,16.50
2022-10-28T22:21:16.999Z,16.50
2022-10-28T22:23:45.188Z,15.00
2022-10-28T22:26:28.829Z,12.50
2022-10-28T22:28:57.035Z,12.75
2022-10-28T22:31:27.858Z,14.50
2022-10-28T22:33:57.275Z,9.75
2022-10-28T22:36:27.385Z,14.00
2022-10-28T22:38:55.272Z,10.00
2022-10-28T22:41:31.387Z,11.00
2022-10-28T22:44:01.061Z,12.50
2022-10-28T22:46:31.948Z,11.50
2022-10-28T22:49:00.164Z,10.50
2022-10-28T22:51:27.831Z,11.75
2022-10-28T22:53:55.585Z,10.75
2022-10-28T22:56:25.343Z,12.50
2022-10-28T22:58:58.540Z,12.00
2022-10-28T23:01:27.918Z,9.25
2022-10-28T23:03:56.220Z,13.50
2022-10-28T23:06:26.546Z,11.75
2022-10-28T23:08:54.463Z,14.50
2022-10-28T23:11:22.881Z,7.00
2022-10-28T23:13:54.727Z,12.00
2022-10-28T23:16:23.869Z,13.75
2022-10-28T23:18:53.231Z,12.25
2022-10-28T23:21:23.740Z,7.00
2022-10-28T23:23:56.706Z,9.25
2022-10-28T23:26:25.541Z,12.25
2022-10-28T23:28:56.139Z,13.25
2022-10-28T23:31:24.315Z,12.00
2022-10-28T23:33:52.862Z,9.75
2022-10-28T23:36:20.741Z,13.75
2022-10-28T23:38:48.597Z,12.25
2022-10-28T23:41:19.191Z,12.00
2022-10-28T23:43:47.461Z,11.50
2022-10-28T23:46:15.221Z,11.75
2022-10-28T23:48:42.860Z,14.75
2022-10-28T23:51:10.297Z,13.25
2022-10-28T23:53:38.033Z,13.75
2022-10-28T23:56:06.305Z,16.75
2022-10-28T23:58:33.939Z,13.25
